Aviation Digital Data Service (ADDS)

Output produced by TAFs form (2358 UTC 18 July 2018)
found at http://www.aviationweather.gov/adds/tafs/
 
METAR text: RJAF 182330Z 34003KT 250V040 7000 FEW030 SCT/// 26/20 Q1015
Conditions at: RJAF (MATSUMOTO AIRPOR, JP) observed 2330 UTC 18 July 2018
Temperature: 26.0°C (79°F)
Dewpoint: 20.0°C (68°F) [RH = 70%]
Pressure (altimeter): 29.97 inches Hg (1015.0 mb)
Winds: from the NNW (340 degrees) at 3 MPH (3 knots; 1.6 m/s)
Visibility: 4 miles (7 km)
Ceiling: at least 12,000 feet AGL
Clouds: few clouds at 3000 feet AGL
Weather: no significant weather observed at this time